sensor_id;sensor_type;location;lat;lon;timestamp;temperature;humidity
25918;DHT22;13899;51.174;4.456;2023-12-04T00:01:48;3.70;99.90
25918;DHT22;13899;51.174;4.456;2023-12-04T00:04:14;3.90;99.90
25918;DHT22;13899;51.174;4.456;2023-12-04T00:06:41;4.30;99.90
25918;DHT22;13899;51.174;4.456;2023-12-04T00:09:07;4.00;99.90
25918;DHT22;13899;51.174;4.456;2023-12-04T00:11:33;3.80;99.90
25918;DHT22;13899;51.174;4.456;2023-12-04T00:13:59;4.00;99.90
25918;DHT22;13899;51.174;4.456;2023-12-04T00:16:25;3.80;99.90
25918;DHT22;13899;51.174;4.456;2023-12-04T00:18:51;3.70;99.90
25918;DHT22;13899;51.174;4.456;2023-12-04T00:21:16;3.80;99.90
25918;DHT22;13899;51.174;4.456;2023-12-04T00:23:42;3.60;99.90
25918;DHT22;13899;51.174;4.456;2023-12-04T00:26:08;3.40;99.90
25918;DHT22;13899;51.174;4.456;2023-12-04T00:28:36;3.30;99.90
25918;DHT22;13899;51.174;4.456;2023-12-04T00:31:02;3.50;99.90
25918;DHT22;13899;51.174;4.456;2023-12-04T00:33:28;3.40;99.90
25918;DHT22;13899;51.174;4.456;2023-12-04T00:35:54;3.40;99.90
25918;DHT22;13899;51.174;4.456;2023-12-04T00:38:19;3.10;99.90
25918;DHT22;13899;51.174;4.456;2023-12-04T00:40:45;3.00;99.90
25918;DHT22;13899;51.174;4.456;2023-12-04T00:43:11;3.10;99.90
25918;DHT22;13899;51.174;4.456;2023-12-04T00:45:36;3.10;99.90
25918;DHT22;13899;51.174;4.456;2023-12-04T00:48:02;3.20;99.90
25918;DHT22;13899;51.174;4.456;2023-12-04T00:50:28;3.30;99.90
25918;DHT22;13899;51.174;4.456;2023-12-04T00:52:54;3.40;99.90
25918;DHT22;13899;51.174;4.456;2023-12-04T00:55:20;3.20;99.90
25918;DHT22;13899;51.174;4.456;2023-12-04T00:57:46;3.20;99.90
25918;DHT22;13899;51.174;4.456;2023-12-04T01:00:12;3.10;99.90
25918;DHT22;13899;51.174;4.456;2023-12-04T01:02:38;3.00;99.90
25918;DHT22;13899;51.174;4.456;2023-12-04T01:05:04;2.90;99.90
25918;DHT22;13899;51.174;4.456;2023-12-04T01:07:30;2.90;99.90
25918;DHT22;13899;51.174;4.456;2023-12-04T01:09:55;2.90;99.90
25918;DHT22;13899;51.174;4.456;2023-12-04T01:12:21;3.10;99.90
25918;DHT22;13899;51.174;4.456;2023-12-04T01:14:47;3.10;99.90
25918;DHT22;13899;51.174;4.456;2023-12-04T01:17:13;2.80;99.90
25918;DHT22;13899;51.174;4.456;2023-12-04T01:19:38;2.70;99.90
25918;DHT22;13899;51.174;4.456;2023-12-04T01:22:05;2.70;99.90
25918;DHT22;13899;51.174;4.456;2023-12-04T01:24:30;2.70;99.90
25918;DHT22;13899;51.174;4.456;2023-12-04T01:26:56;2.80;99.90
25918;DHT22;13899;51.174;4.456;2023-12-04T01:29:22;2.90;99.90
25918;DHT22;13899;51.174;4.456;2023-12-04T01:31:47;2.90;99.90
25918;DHT22;13899;51.174;4.456;2023-12-04T01:34:13;3.00;99.90
25918;DHT22;13899;51.174;4.456;2023-12-04T01:36:42;3.00;99.90
25918;DHT22;13899;51.174;4.456;2023-12-04T01:39:07;3.00;99.90
25918;DHT22;13899;51.174;4.456;2023-12-04T01:41:33;2.90;99.90
25918;DHT22;13899;51.174;4.456;2023-12-04T01:43:59;2.80;99.90
25918;DHT22;13899;51.174;4.456;2023-12-04T01:46:25;2.80;99.90
25918;DHT22;13899;51.174;4.456;2023-12-04T01:48:51;2.90;99.90
25918;DHT22;13899;51.174;4.456;2023-12-04T01:51:17;2.80;99.90
25918;DHT22;13899;51.174;4.456;2023-12-04T01:53:43;2.80;99.90
25918;DHT22;13899;51.174;4.456;2023-12-04T01:56:09;2.80;99.90
25918;DHT22;13899;51.174;4.456;2023-12-04T01:58:36;2.80;99.90
25918;DHT22;13899;51.174;4.456;2023-12-04T02:01:02;2.80;99.90
25918;DHT22;13899;51.174;4.456;2023-12-04T02:03:28;2.70;99.90
25918;DHT22;13899;51.174;4.456;2023-12-04T02:05:54;2.80;99.90
25918;DHT22;13899;51.174;4.456;2023-12-04T02:08:22;2.80;99.90
25918;DHT22;13899;51.174;4.456;2023-12-04T02:10:48;2.80;99.90
25918;DHT22;13899;51.174;4.456;2023-12-04T02:13:14;2.90;99.90
25918;DHT22;13899;51.174;4.456;2023-12-04T02:15:40;2.80;99.90
25918;DHT22;13899;51.174;4.456;2023-12-04T02:18:05;2.80;99.90
25918;DHT22;13899;51.174;4.456;2023-12-04T02:20:35;2.80;99.90
25918;DHT22;13899;51.174;4.456;2023-12-04T02:23:01;2.90;99.90
25918;DHT22;13899;51.174;4.456;2023-12-04T02:25:28;3.00;99.90
25918;DHT22;13899;51.174;4.456;2023-12-04T02:27:54;2.90;99.90
25918;DHT22;13899;51.174;4.456;2023-12-04T02:30:23;2.90;99.90
25918;DHT22;13899;51.174;4.456;2023-12-04T02:32:50;2.90;99.90
25918;DHT22;13899;51.174;4.456;2023-12-04T02:35:21;2.90;99.90
25918;DHT22;13899;51.174;4.456;2023-12-04T02:37:48;2.90;99.90
25918;DHT22;13899;51.174;4.456;2023-12-04T02:40:14;3.10;99.90
25918;DHT22;13899;51.174;4.456;2023-12-04T02:42:40;3.20;99.90
25918;DHT22;13899;51.174;4.456;2023-12-04T02:45:07;3.10;99.90
25918;DHT22;13899;51.174;4.456;2023-12-04T02:47:32;3.00;99.90
25918;DHT22;13899;51.174;4.456;2023-12-04T02:49:58;2.90;99.90
25918;DHT22;13899;51.174;4.456;2023-12-04T02:52:24;3.10;99.90
25918;DHT22;13899;51.174;4.456;2023-12-04T02:54:49;3.10;99.90
25918;DHT22;13899;51.174;4.456;2023-12-04T02:57:15;3.00;99.90
25918;DHT22;13899;51.174;4.456;2023-12-04T02:59:41;3.00;99.90
25918;DHT22;13899;51.174;4.456;2023-12-04T03:02:06;3.20;99.90
25918;DHT22;13899;51.174;4.456;2023-12-04T03:04:34;3.10;99.90
25918;DHT22;13899;51.174;4.456;2023-12-04T03:06:59;3.30;99.90
25918;DHT22;13899;51.174;4.456;2023-12-04T03:09:25;3.10;99.90
25918;DHT22;13899;51.174;4.456;2023-12-04T03:11:50;3.20;99.90
25918;DHT22;13899;51.174;4.456;2023-12-04T03:14:16;3.30;99.90
25918;DHT22;13899;51.174;4.456;2023-12-04T03:16:42;3.20;99.90
25918;DHT22;13899;51.174;4.456;2023-12-04T03:19:07;3.40;99.90
25918;DHT22;13899;51.174;4.456;2023-12-04T03:21:33;3.20;99.90
25918;DHT22;13899;51.174;4.456;2023-12-04T03:23:59;3.00;99.90
25918;DHT22;13899;51.174;4.456;2023-12-04T03:26:24;3.10;99.90
25918;DHT22;13899;51.174;4.456;2023-12-04T03:28:50;3.20;99.90
25918;DHT22;13899;51.174;4.456;2023-12-04T03:31:16;3.50;99.90
25918;DHT22;13899;51.174;4.456;2023-12-04T03:33:41;3.40;99.90
25918;DHT22;13899;51.174;4.456;2023-12-04T03:36:07;3.30;99.90
25918;DHT22;13899;51.174;4.456;2023-12-04T03:38:33;3.30;99.90
25918;DHT22;13899;51.174;4.456;2023-12-04T03:40:59;3.30;99.90
25918;DHT22;13899;51.174;4.456;2023-12-04T03:43:24;3.30;99.90
25918;DHT22;13899;51.174;4.456;2023-12-04T03:45:50;3.30;99.90
25918;DHT22;13899;51.174;4.456;2023-12-04T03:48:15;3.30;99.90
25918;DHT22;13899;51.174;4.456;2023-12-04T03:50:41;3.10;99.90
25918;DHT22;13899;51.174;4.456;2023-12-04T03:53:07;3.00;99.90
25918;DHT22;13899;51.174;4.456;2023-12-04T03:55:32;3.10;99.90
25918;DHT22;13899;51.174;4.456;2023-12-04T03:57:58;3.00;99.90
25918;DHT22;13899;51.174;4.456;2023-12-04T04:00:24;3.20;99.90
25918;DHT22;13899;51.174;4.456;2023-12-04T04:02:50;3.20;99.90
25918;DHT22;13899;51.174;4.456;2023-12-04T04:05:16;3.10;99.90
25918;DHT22;13899;51.174;4.456;2023-12-04T04:07:41;3.10;99.90
25918;DHT22;13899;51.174;4.456;2023-12-04T04:10:08;3.10;99.90
25918;DHT22;13899;51.174;4.456;2023-12-04T04:12:34;3.30;99.90
25918;DHT22;13899;51.174;4.456;2023-12-04T04:15:00;3.20;99.90
25918;DHT22;13899;51.174;4.456;2023-12-04T04:17:26;3.10;99.90
25918;DHT22;13899;51.174;4.456;2023-12-04T04:19:52;3.20;99.90
25918;DHT22;13899;51.174;4.456;2023-12-04T04:22:19;3.00;99.90
25918;DHT22;13899;51.174;4.456;2023-12-04T04:24:44;3.10;99.90
25918;DHT22;13899;51.174;4.456;2023-12-04T04:27:10;3.10;99.90
25918;DHT22;13899;51.174;4.456;2023-12-04T04:29:36;3.10;99.90
25918;DHT22;13899;51.174;4.456;2023-12-04T04:32:01;3.20;99.90
25918;DHT22;13899;51.174;4.456;2023-12-04T04:34:27;3.30;99.90
25918;DHT22;13899;51.174;4.456;2023-12-04T04:36:53;3.40;99.90
25918;DHT22;13899;51.174;4.456;2023-12-04T04:39:19;3.40;99.90
25918;DHT22;13899;51.174;4.456;2023-12-04T04:41:44;3.40;99.90
25918;DHT22;13899;51.174;4.456;2023-12-04T04:44:10;3.30;99.90
25918;DHT22;13899;51.174;4.456;2023-12-04T04:46:36;3.30;99.90
25918;DHT22;13899;51.174;4.456;2023-12-04T04:49:01;3.20;99.90
25918;DHT22;13899;51.174;4.456;2023-12-04T04:51:28;3.20;99.90
25918;DHT22;13899;51.174;4.456;2023-12-04T04:53:54;3.30;99.90
25918;DHT22;13899;51.174;4.456;2023-12-04T04:56:21;3.50;99.90
25918;DHT22;13899;51.174;4.456;2023-12-04T04:58:46;3.40;99.90
25918;DHT22;13899;51.174;4.456;2023-12-04T05:01:12;3.50;99.90
25918;DHT22;13899;51.174;4.456;2023-12-04T05:03:37;3.70;99.90
25918;DHT22;13899;51.174;4.456;2023-12-04T05:06:03;3.50;99.90
25918;DHT22;13899;51.174;4.456;2023-12-04T05:08:29;3.50;99.90
25918;DHT22;13899;51.174;4.456;2023-12-04T05:10:55;3.40;99.90
25918;DHT22;13899;51.174;4.456;2023-12-04T05:13:20;3.40;99.90
25918;DHT22;13899;51.174;4.456;2023-12-04T05:15:46;3.40;99.90
25918;DHT22;13899;51.174;4.456;2023-12-04T05:18:12;3.40;99.90
25918;DHT22;13899;51.174;4.456;2023-12-04T05:20:37;3.40;99.90
25918;DHT22;13899;51.174;4.456;2023-12-04T05:23:03;3.50;99.90
25918;DHT22;13899;51.174;4.456;2023-12-04T05:25:28;3.40;99.90
25918;DHT22;13899;51.174;4.456;2023-12-04T05:27:54;3.50;99.90
25918;DHT22;13899;51.174;4.456;2023-12-04T05:30:20;3.60;99.90
25918;DHT22;13899;51.174;4.456;2023-12-04T05:32:45;3.70;99.90
25918;DHT22;13899;51.174;4.456;2023-12-04T05:35:11;3.60;99.90
25918;DHT22;13899;51.174;4.456;2023-12-04T05:37:36;3.50;99.90
25918;DHT22;13899;51.174;4.456;2023-12-04T05:40:03;3.40;99.90
25918;DHT22;13899;51.174;4.456;2023-12-04T05:42:30;3.50;99.90
25918;DHT22;13899;51.174;4.456;2023-12-04T05:44:55;3.60;99.90
25918;DHT22;13899;51.174;4.456;2023-12-04T05:47:22;3.50;99.90
25918;DHT22;13899;51.174;4.456;2023-12-04T05:49:48;3.80;99.90
25918;DHT22;13899;51.174;4.456;2023-12-04T05:52:14;4.30;99.90
25918;DHT22;13899;51.174;4.456;2023-12-04T05:54:39;4.20;99.90
25918;DHT22;13899;51.174;4.456;2023-12-04T05:57:05;3.90;99.90
25918;DHT22;13899;51.174;4.456;2023-12-04T05:59:30;3.90;99.90
25918;DHT22;13899;51.174;4.456;2023-12-04T06:01:56;4.10;99.90
25918;DHT22;13899;51.174;4.456;2023-12-04T06:04:22;4.10;99.90
25918;DHT22;13899;51.174;4.456;2023-12-04T06:06:47;4.10;99.90
25918;DHT22;13899;51.174;4.456;2023-12-04T06:09:13;4.20;99.90
25918;DHT22;13899;51.174;4.456;2023-12-04T06:11:41;3.80;99.90
25918;DHT22;13899;51.174;4.456;2023-12-04T06:14:07;3.80;99.90
25918;DHT22;13899;51.174;4.456;2023-12-04T06:16:32;3.90;99.90
25918;DHT22;13899;51.174;4.456;2023-12-04T06:18:58;4.20;99.90
25918;DHT22;13899;51.174;4.456;2023-12-04T06:21:23;4.20;99.90
25918;DHT22;13899;51.174;4.456;2023-12-04T06:23:49;4.30;99.90
25918;DHT22;13899;51.174;4.456;2023-12-04T06:26:15;4.50;99.90
25918;DHT22;13899;51.174;4.456;2023-12-04T06:28:43;4.50;99.90
25918;DHT22;13899;51.174;4.456;2023-12-04T06:31:09;4.40;99.90
25918;DHT22;13899;51.174;4.456;2023-12-04T06:33:35;3.90;99.90
25918;DHT22;13899;51.174;4.456;2023-12-04T06:36:01;3.60;99.90
25918;DHT22;13899;51.174;4.456;2023-12-04T06:38:31;3.60;99.90
25918;DHT22;13899;51.174;4.456;2023-12-04T06:40:57;3.60;99.90
25918;DHT22;13899;51.174;4.456;2023-12-04T06:43:23;3.70;99.90
25918;DHT22;13899;51.174;4.456;2023-12-04T06:45:49;3.70;99.90
25918;DHT22;13899;51.174;4.456;2023-12-04T06:48:15;3.60;99.90
25918;DHT22;13899;51.174;4.456;2023-12-04T06:50:41;3.50;99.90
25918;DHT22;13899;51.174;4.456;2023-12-04T06:53:07;3.40;99.90
25918;DHT22;13899;51.174;4.456;2023-12-04T06:55:33;3.40;99.90
25918;DHT22;13899;51.174;4.456;2023-12-04T06:57:58;3.40;99.90
25918;DHT22;13899;51.174;4.456;2023-12-04T07:00:24;3.40;99.90
25918;DHT22;13899;51.174;4.456;2023-12-04T07:02:50;3.50;99.90
25918;DHT22;13899;51.174;4.456;2023-12-04T07:05:16;3.50;99.90
25918;DHT22;13899;51.174;4.456;2023-12-04T07:07:42;3.60;99.90
25918;DHT22;13899;51.174;4.456;2023-12-04T07:10:07;3.50;99.90
25918;DHT22;13899;51.174;4.456;2023-12-04T07:12:33;3.50;99.90
25918;DHT22;13899;51.174;4.456;2023-12-04T07:14:59;3.50;99.90
25918;DHT22;13899;51.174;4.456;2023-12-04T07:17:25;3.50;99.90
25918;DHT22;13899;51.174;4.456;2023-12-04T07:19:50;3.60;99.90
25918;DHT22;13899;51.174;4.456;2023-12-04T07:22:16;3.60;99.90
25918;DHT22;13899;51.174;4.456;2023-12-04T07:24:41;3.60;99.90
25918;DHT22;13899;51.174;4.456;2023-12-04T07:27:07;3.50;99.90
25918;DHT22;13899;51.174;4.456;2023-12-04T07:29:34;3.40;99.90
25918;DHT22;13899;51.174;4.456;2023-12-04T07:32:00;3.50;99.90
25918;DHT22;13899;51.174;4.456;2023-12-04T07:34:26;3.60;99.90
25918;DHT22;13899;51.174;4.456;2023-12-04T07:36:52;3.50;99.90
25918;DHT22;13899;51.174;4.456;2023-12-04T07:39:17;3.50;99.90
25918;DHT22;13899;51.174;4.456;2023-12-04T07:41:43;3.50;99.90
25918;DHT22;13899;51.174;4.456;2023-12-04T07:44:09;3.60;99.90
25918;DHT22;13899;51.174;4.456;2023-12-04T07:46:34;3.60;99.90
25918;DHT22;13899;51.174;4.456;2023-12-04T07:49:00;3.70;99.90
25918;DHT22;13899;51.174;4.456;2023-12-04T07:51:25;3.50;99.90
25918;DHT22;13899;51.174;4.456;2023-12-04T07:53:51;3.60;99.90
25918;DHT22;13899;51.174;4.456;2023-12-04T07:56:17;3.60;99.90
25918;DHT22;13899;51.174;4.456;2023-12-04T07:58:42;3.70;99.90
25918;DHT22;13899;51.174;4.456;2023-12-04T08:01:08;3.70;99.90
25918;DHT22;13899;51.174;4.456;2023-12-04T08:03:34;3.90;99.90
25918;DHT22;13899;51.174;4.456;2023-12-04T08:05:59;3.70;99.90
25918;DHT22;13899;51.174;4.456;2023-12-04T08:08:25;3.70;99.90
25918;DHT22;13899;51.174;4.456;2023-12-04T08:10:51;3.70;99.90
25918;DHT22;13899;51.174;4.456;2023-12-04T08:13:16;3.90;99.90
25918;DHT22;13899;51.174;4.456;2023-12-04T08:15:43;3.80;99.90
25918;DHT22;13899;51.174;4.456;2023-12-04T08:18:08;3.80;99.90
25918;DHT22;13899;51.174;4.456;2023-12-04T08:20:34;3.90;99.90
25918;DHT22;13899;51.174;4.456;2023-12-04T08:23:00;3.90;99.90
25918;DHT22;13899;51.174;4.456;2023-12-04T08:25:25;3.90;99.90
25918;DHT22;13899;51.174;4.456;2023-12-04T08:27:51;3.90;99.90
25918;DHT22;13899;51.174;4.456;2023-12-04T08:30:17;4.00;99.90
25918;DHT22;13899;51.174;4.456;2023-12-04T08:32:43;4.10;99.90
25918;DHT22;13899;51.174;4.456;2023-12-04T08:35:08;4.10;99.90
25918;DHT22;13899;51.174;4.456;2023-12-04T08:37:34;4.20;99.90
25918;DHT22;13899;51.174;4.456;2023-12-04T08:40:00;4.30;99.90
25918;DHT22;13899;51.174;4.456;2023-12-04T08:42:25;4.20;99.90
25918;DHT22;13899;51.174;4.456;2023-12-04T08:44:51;4.10;99.90
25918;DHT22;13899;51.174;4.456;2023-12-04T08:47:17;4.10;99.90
25918;DHT22;13899;51.174;4.456;2023-12-04T08:49:43;4.10;99.90
25918;DHT22;13899;51.174;4.456;2023-12-04T08:52:10;4.00;99.90
25918;DHT22;13899;51.174;4.456;2023-12-04T08:54:39;4.10;99.90
25918;DHT22;13899;51.174;4.456;2023-12-04T08:57:05;4.20;99.90
25918;DHT22;13899;51.174;4.456;2023-12-04T08:59:30;4.20;99.90
25918;DHT22;13899;51.174;4.456;2023-12-04T09:01:56;4.20;99.90
25918;DHT22;13899;51.174;4.456;2023-12-04T09:04:22;4.40;99.90
25918;DHT22;13899;51.174;4.456;2023-12-04T09:06:47;4.40;99.90
25918;DHT22;13899;51.174;4.456;2023-12-04T09:09:13;4.10;99.90
25918;DHT22;13899;51.174;4.456;2023-12-04T09:11:44;4.00;99.90
25918;DHT22;13899;51.174;4.456;2023-12-04T09:14:10;4.00;99.90
25918;DHT22;13899;51.174;4.456;2023-12-04T09:16:35;3.90;99.90
25918;DHT22;13899;51.174;4.456;2023-12-04T09:19:01;4.10;99.90
25918;DHT22;13899;51.174;4.456;2023-12-04T09:21:27;4.00;99.90
25918;DHT22;13899;51.174;4.456;2023-12-04T09:23:52;4.10;99.90
25918;DHT22;13899;51.174;4.456;2023-12-04T09:26:18;4.20;99.90
25918;DHT22;13899;51.174;4.456;2023-12-04T09:28:44;4.20;99.90
25918;DHT22;13899;51.174;4.456;2023-12-04T09:31:10;4.20;99.90
25918;DHT22;13899;51.174;4.456;2023-12-04T09:33:35;4.40;99.90
25918;DHT22;13899;51.174;4.456;2023-12-04T09:36:02;4.50;99.90
25918;DHT22;13899;51.174;4.456;2023-12-04T09:38:28;4.70;99.90
25918;DHT22;13899;51.174;4.456;2023-12-04T09:40:59;4.60;99.90
25918;DHT22;13899;51.174;4.456;2023-12-04T09:43:25;4.40;99.90
25918;DHT22;13899;51.174;4.456;2023-12-04T09:45:51;4.30;99.90
25918;DHT22;13899;51.174;4.456;2023-12-04T09:48:17;4.20;99.90
25918;DHT22;13899;51.174;4.456;2023-12-04T09:50:43;4.30;99.90
25918;DHT22;13899;51.174;4.456;2023-12-04T09:53:10;4.10;99.90
25918;DHT22;13899;51.174;4.456;2023-12-04T09:55:37;4.00;99.90
25918;DHT22;13899;51.174;4.456;2023-12-04T09:58:03;4.10;99.90
25918;DHT22;13899;51.174;4.456;2023-12-04T10:00:30;4.10;99.90
25918;DHT22;13899;51.174;4.456;2023-12-04T10:02:57;4.30;99.90
25918;DHT22;13899;51.174;4.456;2023-12-04T10:05:23;4.20;99.90
25918;DHT22;13899;51.174;4.456;2023-12-04T10:07:49;4.10;99.90
25918;DHT22;13899;51.174;4.456;2023-12-04T10:10:14;4.00;99.90
25918;DHT22;13899;51.174;4.456;2023-12-04T10:12:40;3.80;99.90
25918;DHT22;13899;51.174;4.456;2023-12-04T10:15:09;3.80;99.90
25918;DHT22;13899;51.174;4.456;2023-12-04T10:17:36;3.80;99.90
25918;DHT22;13899;51.174;4.456;2023-12-04T10:20:10;3.80;99.90
25918;DHT22;13899;51.174;4.456;2023-12-04T10:25:30;3.70;99.90
25918;DHT22;13899;51.174;4.456;2023-12-04T10:28:08;3.60;99.90
25918;DHT22;13899;51.174;4.456;2023-12-04T10:30:34;3.70;99.90
25918;DHT22;13899;51.174;4.456;2023-12-04T10:33:04;3.70;99.90
25918;DHT22;13899;51.174;4.456;2023-12-04T10:35:32;3.70;99.90
25918;DHT22;13899;51.174;4.456;2023-12-04T10:37:58;3.70;99.90
25918;DHT22;13899;51.174;4.456;2023-12-04T10:40:29;3.80;99.90
25918;DHT22;13899;51.174;4.456;2023-12-04T10:45:35;4.00;99.90
25918;DHT22;13899;51.174;4.456;2023-12-04T10:48:02;4.00;99.90
25918;DHT22;13899;51.174;4.456;2023-12-04T10:50:34;4.10;99.90
25918;DHT22;13899;51.174;4.456;2023-12-04T10:53:04;4.00;99.90
25918;DHT22;13899;51.174;4.456;2023-12-04T10:55:31;4.10;99.90
25918;DHT22;13899;51.174;4.456;2023-12-04T10:57:57;4.10;99.90
25918;DHT22;13899;51.174;4.456;2023-12-04T11:00:25;3.90;99.90
25918;DHT22;13899;51.174;4.456;2023-12-04T11:02:55;3.90;99.90
25918;DHT22;13899;51.174;4.456;2023-12-04T11:05:23;3.90;99.90
25918;DHT22;13899;51.174;4.456;2023-12-04T11:08:01;4.10;99.90
25918;DHT22;13899;51.174;4.456;2023-12-04T11:10:29;4.10;99.90
25918;DHT22;13899;51.174;4.456;2023-12-04T11:13:02;4.00;99.90
25918;DHT22;13899;51.174;4.456;2023-12-04T11:15:31;3.90;99.90
25918;DHT22;13899;51.174;4.456;2023-12-04T11:18:00;4.00;99.90
25918;DHT22;13899;51.174;4.456;2023-12-04T11:20:31;4.10;99.90
25918;DHT22;13899;51.174;4.456;2023-12-04T11:22:59;4.10;99.90
25918;DHT22;13899;51.174;4.456;2023-12-04T11:25:26;4.10;99.90
25918;DHT22;13899;51.174;4.456;2023-12-04T11:27:54;3.90;99.90
25918;DHT22;13899;51.174;4.456;2023-12-04T11:30:21;3.90;99.90
25918;DHT22;13899;51.174;4.456;2023-12-04T11:32:48;3.90;99.90
25918;DHT22;13899;51.174;4.456;2023-12-04T11:35:15;3.90;99.90
25918;DHT22;13899;51.174;4.456;2023-12-04T11:37:44;3.90;99.90
25918;DHT22;13899;51.174;4.456;2023-12-04T11:40:12;3.90;99.90
25918;DHT22;13899;51.174;4.456;2023-12-04T11:42:39;3.90;99.90
25918;DHT22;13899;51.174;4.456;2023-12-04T11:45:05;3.80;99.90
25918;DHT22;13899;51.174;4.456;2023-12-04T11:47:56;3.70;99.90
25918;DHT22;13899;51.174;4.456;2023-12-04T11:50:24;3.80;99.90
25918;DHT22;13899;51.174;4.456;2023-12-04T11:52:50;3.80;99.90
25918;DHT22;13899;51.174;4.456;2023-12-04T11:55:18;3.80;99.90
25918;DHT22;13899;51.174;4.456;2023-12-04T11:57:45;3.80;99.90
25918;DHT22;13899;51.174;4.456;2023-12-04T12:03:06;3.90;99.90
25918;DHT22;13899;51.174;4.456;2023-12-04T12:05:34;3.90;99.90
25918;DHT22;13899;51.174;4.456;2023-12-04T12:08:02;3.90;99.90
25918;DHT22;13899;51.174;4.456;2023-12-04T12:10:28;4.00;99.90
25918;DHT22;13899;51.174;4.456;2023-12-04T12:12:54;3.90;99.90
25918;DHT22;13899;51.174;4.456;2023-12-04T12:15:20;3.90;99.90
25918;DHT22;13899;51.174;4.456;2023-12-04T12:17:46;4.00;99.90
25918;DHT22;13899;51.174;4.456;2023-12-04T12:20:13;3.90;99.90
25918;DHT22;13899;51.174;4.456;2023-12-04T12:22:39;4.00;99.90
25918;DHT22;13899;51.174;4.456;2023-12-04T12:25:08;4.00;99.90
25918;DHT22;13899;51.174;4.456;2023-12-04T12:27:33;4.10;99.90
25918;DHT22;13899;51.174;4.456;2023-12-04T12:30:00;4.00;99.90
25918;DHT22;13899;51.174;4.456;2023-12-04T12:32:26;4.10;99.90
25918;DHT22;13899;51.174;4.456;2023-12-04T12:34:55;4.30;99.90
25918;DHT22;13899;51.174;4.456;2023-12-04T12:37:21;4.40;99.90
25918;DHT22;13899;51.174;4.456;2023-12-04T12:39:47;4.40;99.90
25918;DHT22;13899;51.174;4.456;2023-12-04T12:42:21;4.30;99.90
25918;DHT22;13899;51.174;4.456;2023-12-04T12:44:48;4.40;99.90
25918;DHT22;13899;51.174;4.456;2023-12-04T12:47:15;4.40;99.90
25918;DHT22;13899;51.174;4.456;2023-12-04T12:49:41;4.50;99.90
25918;DHT22;13899;51.174;4.456;2023-12-04T12:52:06;4.40;99.90
25918;DHT22;13899;51.174;4.456;2023-12-04T12:54:42;4.70;99.90
25918;DHT22;13899;51.174;4.456;2023-12-04T12:57:08;4.50;99.90
25918;DHT22;13899;51.174;4.456;2023-12-04T12:59:34;4.40;99.90
25918;DHT22;13899;51.174;4.456;2023-12-04T13:02:00;4.30;99.90
25918;DHT22;13899;51.174;4.456;2023-12-04T13:04:26;4.30;99.90
25918;DHT22;13899;51.174;4.456;2023-12-04T13:06:58;4.30;99.90
25918;DHT22;13899;51.174;4.456;2023-12-04T13:09:24;4.40;99.90
25918;DHT22;13899;51.174;4.456;2023-12-04T13:11:49;4.40;99.90
25918;DHT22;13899;51.174;4.456;2023-12-04T13:14:17;4.30;99.90
25918;DHT22;13899;51.174;4.456;2023-12-04T13:16:42;4.30;99.90
25918;DHT22;13899;51.174;4.456;2023-12-04T13:19:08;4.40;99.90
25918;DHT22;13899;51.174;4.456;2023-12-04T13:21:33;4.40;99.90
25918;DHT22;13899;51.174;4.456;2023-12-04T13:23:59;4.30;99.90
25918;DHT22;13899;51.174;4.456;2023-12-04T13:26:25;4.20;99.90
25918;DHT22;13899;51.174;4.456;2023-12-04T13:28:50;4.30;99.90
25918;DHT22;13899;51.174;4.456;2023-12-04T13:31:16;4.30;99.90
25918;DHT22;13899;51.174;4.456;2023-12-04T13:33:42;4.60;99.90
25918;DHT22;13899;51.174;4.456;2023-12-04T13:36:09;4.60;99.90
25918;DHT22;13899;51.174;4.456;2023-12-04T13:38:35;4.50;99.90
25918;DHT22;13899;51.174;4.456;2023-12-04T13:41:01;4.50;99.90
25918;DHT22;13899;51.174;4.456;2023-12-04T13:43:44;4.50;99.90
25918;DHT22;13899;51.174;4.456;2023-12-04T13:46:15;4.70;99.90
25918;DHT22;13899;51.174;4.456;2023-12-04T13:48:41;4.60;99.90
25918;DHT22;13899;51.174;4.456;2023-12-04T13:51:09;4.40;99.90
25918;DHT22;13899;51.174;4.456;2023-12-04T13:53:35;4.40;99.90
25918;DHT22;13899;51.174;4.456;2023-12-04T13:56:05;4.60;99.90
25918;DHT22;13899;51.174;4.456;2023-12-04T13:58:46;4.70;99.90
25918;DHT22;13899;51.174;4.456;2023-12-04T14:01:12;4.70;99.90
25918;DHT22;13899;51.174;4.456;2023-12-04T14:03:47;4.70;99.90
25918;DHT22;13899;51.174;4.456;2023-12-04T14:06:13;4.60;99.90
25918;DHT22;13899;51.174;4.456;2023-12-04T14:08:41;4.70;99.90
25918;DHT22;13899;51.174;4.456;2023-12-04T14:11:06;4.50;99.90
25918;DHT22;13899;51.174;4.456;2023-12-04T14:13:33;4.40;99.90
25918;DHT22;13899;51.174;4.456;2023-12-04T14:15:59;4.50;99.90
25918;DHT22;13899;51.174;4.456;2023-12-04T14:18:24;4.40;99.90
25918;DHT22;13899;51.174;4.456;2023-12-04T14:20:51;4.50;99.90
25918;DHT22;13899;51.174;4.456;2023-12-04T14:23:17;4.50;99.90
25918;DHT22;13899;51.174;4.456;2023-12-04T14:25:44;4.50;99.90
25918;DHT22;13899;51.174;4.456;2023-12-04T14:28:10;4.60;99.90
25918;DHT22;13899;51.174;4.456;2023-12-04T14:30:36;4.40;99.90
25918;DHT22;13899;51.174;4.456;2023-12-04T14:33:02;4.40;99.90
25918;DHT22;13899;51.174;4.456;2023-12-04T14:35:27;4.40;99.90
25918;DHT22;13899;51.174;4.456;2023-12-04T14:37:53;4.40;99.90
25918;DHT22;13899;51.174;4.456;2023-12-04T14:40:19;4.40;99.90
25918;DHT22;13899;51.174;4.456;2023-12-04T14:42:46;4.50;99.90
25918;DHT22;13899;51.174;4.456;2023-12-04T14:45:13;4.30;99.90
25918;DHT22;13899;51.174;4.456;2023-12-04T14:47:39;4.30;99.90
25918;DHT22;13899;51.174;4.456;2023-12-04T14:50:06;4.30;99.90
25918;DHT22;13899;51.174;4.456;2023-12-04T14:52:33;4.50;99.90
25918;DHT22;13899;51.174;4.456;2023-12-04T14:55:00;4.50;99.90
25918;DHT22;13899;51.174;4.456;2023-12-04T14:57:34;4.50;99.90
25918;DHT22;13899;51.174;4.456;2023-12-04T15:00:10;4.50;99.90
25918;DHT22;13899;51.174;4.456;2023-12-04T15:02:38;4.50;99.90
25918;DHT22;13899;51.174;4.456;2023-12-04T15:05:24;4.40;99.90
25918;DHT22;13899;51.174;4.456;2023-12-04T15:08:08;4.30;99.90
25918;DHT22;13899;51.174;4.456;2023-12-04T15:10:49;4.30;99.90
25918;DHT22;13899;51.174;4.456;2023-12-04T15:13:33;4.40;99.90
25918;DHT22;13899;51.174;4.456;2023-12-04T15:16:17;4.60;99.90
25918;DHT22;13899;51.174;4.456;2023-12-04T15:18:56;4.80;99.90
25918;DHT22;13899;51.174;4.456;2023-12-04T15:21:22;5.00;99.90
25918;DHT22;13899;51.174;4.456;2023-12-04T15:23:48;5.00;99.90
25918;DHT22;13899;51.174;4.456;2023-12-04T15:26:13;4.70;99.90
25918;DHT22;13899;51.174;4.456;2023-12-04T15:28:41;4.90;99.90
25918;DHT22;13899;51.174;4.456;2023-12-04T15:31:07;4.60;99.90
25918;DHT22;13899;51.174;4.456;2023-12-04T15:33:32;4.60;99.90
25918;DHT22;13899;51.174;4.456;2023-12-04T15:35:58;4.80;99.90
25918;DHT22;13899;51.174;4.456;2023-12-04T15:38:25;4.80;99.90
25918;DHT22;13899;51.174;4.456;2023-12-04T15:40:50;4.60;99.90
25918;DHT22;13899;51.174;4.456;2023-12-04T15:43:17;4.70;99.90
25918;DHT22;13899;51.174;4.456;2023-12-04T15:45:43;4.60;99.90
25918;DHT22;13899;51.174;4.456;2023-12-04T15:48:08;4.60;99.90
25918;DHT22;13899;51.174;4.456;2023-12-04T15:50:35;4.80;99.90